sensor_id;sensor_type;location;lat;lon;timestamp;P1;durP1;ratioP1;P2;durP2;ratioP2
42726;SDS011;28372;56.832;60.658;2022-08-18T00:01:42;3.42;;;1.90;;
42726;SDS011;28372;56.832;60.658;2022-08-18T00:04:12;5.88;;;2.00;;
42726;SDS011;28372;56.832;60.658;2022-08-18T00:06:59;4.25;;;1.80;;
42726;SDS011;28372;56.832;60.658;2022-08-18T00:09:27;4.05;;;1.90;;
42726;SDS011;28372;56.832;60.658;2022-08-18T00:11:59;4.40;;;1.90;;
42726;SDS011;28372;56.832;60.658;2022-08-18T00:14:30;5.15;;;2.00;;
42726;SDS011;28372;56.832;60.658;2022-08-18T00:16:58;3.58;;;1.90;;
42726;SDS011;28372;56.832;60.658;2022-08-18T00:19:26;4.85;;;2.00;;
42726;SDS011;28372;56.832;60.658;2022-08-18T00:22:13;3.28;;;1.70;;
42726;SDS011;28372;56.832;60.658;2022-08-18T00:24:43;3.63;;;1.70;;
42726;SDS011;28372;56.832;60.658;2022-08-18T00:27:16;4.45;;;2.00;;
42726;SDS011;28372;56.832;60.658;2022-08-18T00:29:50;3.17;;;1.90;;
42726;SDS011;28372;56.832;60.658;2022-08-18T00:32:21;4.20;;;1.70;;
42726;SDS011;28372;56.832;60.658;2022-08-18T00:34:51;2.78;;;1.60;;
42726;SDS011;28372;56.832;60.658;2022-08-18T00:37:20;3.22;;;1.80;;
42726;SDS011;28372;56.832;60.658;2022-08-18T00:39:50;3.47;;;1.77;;
42726;SDS011;28372;56.832;60.658;2022-08-18T00:42:22;3.47;;;1.92;;
42726;SDS011;28372;56.832;60.658;2022-08-18T00:44:58;3.08;;;1.70;;
42726;SDS011;28372;56.832;60.658;2022-08-18T00:47:30;4.03;;;1.92;;
42726;SDS011;28372;56.832;60.658;2022-08-18T00:50:14;3.40;;;1.80;;
42726;SDS011;28372;56.832;60.658;2022-08-18T00:52:46;4.53;;;2.00;;
42726;SDS011;28372;56.832;60.658;2022-08-18T00:55:22;3.95;;;2.10;;
42726;SDS011;28372;56.832;60.658;2022-08-18T00:57:53;3.03;;;2.03;;
42726;SDS011;28372;56.832;60.658;2022-08-18T01:00:27;4.72;;;2.00;;
42726;SDS011;28372;56.832;60.658;2022-08-18T01:02:56;4.45;;;2.00;;
42726;SDS011;28372;56.832;60.658;2022-08-18T01:05:37;3.40;;;2.00;;
42726;SDS011;28372;56.832;60.658;2022-08-18T01:08:13;3.73;;;1.90;;
42726;SDS011;28372;56.832;60.658;2022-08-18T01:10:46;3.65;;;1.90;;
42726;SDS011;28372;56.832;60.658;2022-08-18T01:13:15;3.00;;;1.75;;
42726;SDS011;28372;56.832;60.658;2022-08-18T01:15:43;5.40;;;2.10;;
42726;SDS011;28372;56.832;60.658;2022-08-18T01:18:11;3.17;;;1.80;;
42726;SDS011;28372;56.832;60.658;2022-08-18T01:23:44;5.45;;;2.03;;
42726;SDS011;28372;56.832;60.658;2022-08-18T01:29:10;3.67;;;1.77;;
42726;SDS011;28372;56.832;60.658;2022-08-18T01:31:49;3.40;;;1.88;;
42726;SDS011;28372;56.832;60.658;2022-08-18T01:34:23;3.65;;;1.67;;
42726;SDS011;28372;56.832;60.658;2022-08-18T01:36:53;3.63;;;1.75;;
42726;SDS011;28372;56.832;60.658;2022-08-18T01:39:21;4.43;;;1.88;;
42726;SDS011;28372;56.832;60.658;2022-08-18T01:42:10;3.88;;;2.13;;
42726;SDS011;28372;56.832;60.658;2022-08-18T01:44:40;3.50;;;1.70;;
42726;SDS011;28372;56.832;60.658;2022-08-18T01:47:08;4.57;;;1.88;;
42726;SDS011;28372;56.832;60.658;2022-08-18T01:49:38;3.67;;;1.80;;
42726;SDS011;28372;56.832;60.658;2022-08-18T01:52:10;4.03;;;1.98;;
42726;SDS011;28372;56.832;60.658;2022-08-18T01:54:43;3.63;;;1.80;;
42726;SDS011;28372;56.832;60.658;2022-08-18T01:57:14;2.95;;;1.58;;
42726;SDS011;28372;56.832;60.658;2022-08-18T01:59:43;3.25;;;1.73;;
42726;SDS011;28372;56.832;60.658;2022-08-18T02:02:11;3.05;;;1.65;;
42726;SDS011;28372;56.832;60.658;2022-08-18T02:04:44;3.63;;;2.00;;
42726;SDS011;28372;56.832;60.658;2022-08-18T02:07:13;2.92;;;1.80;;
42726;SDS011;28372;56.832;60.658;2022-08-18T02:09:41;4.22;;;1.90;;
42726;SDS011;28372;56.832;60.658;2022-08-18T02:12:10;3.72;;;1.58;;
42726;SDS011;28372;56.832;60.658;2022-08-18T02:14:39;3.17;;;1.50;;
42726;SDS011;28372;56.832;60.658;2022-08-18T02:17:08;6.75;;;2.15;;
42726;SDS011;28372;56.832;60.658;2022-08-18T02:19:38;3.55;;;1.58;;
42726;SDS011;28372;56.832;60.658;2022-08-18T02:22:14;3.20;;;1.80;;
42726;SDS011;28372;56.832;60.658;2022-08-18T02:24:44;4.05;;;1.63;;
42726;SDS011;28372;56.832;60.658;2022-08-18T02:27:13;4.38;;;1.70;;
42726;SDS011;28372;56.832;60.658;2022-08-18T02:29:41;3.10;;;1.80;;
42726;SDS011;28372;56.832;60.658;2022-08-18T02:32:09;3.35;;;1.50;;
42726;SDS011;28372;56.832;60.658;2022-08-18T02:34:36;3.38;;;1.67;;
42726;SDS011;28372;56.832;60.658;2022-08-18T02:37:04;5.07;;;1.80;;
42726;SDS011;28372;56.832;60.658;2022-08-18T02:39:32;3.08;;;1.88;;
42726;SDS011;28372;56.832;60.658;2022-08-18T02:42:01;4.38;;;1.88;;
42726;SDS011;28372;56.832;60.658;2022-08-18T02:44:28;5.32;;;2.00;;
42726;SDS011;28372;56.832;60.658;2022-08-18T02:46:57;10.20;;;1.65;;
42726;SDS011;28372;56.832;60.658;2022-08-18T02:49:26;5.43;;;1.70;;
42726;SDS011;28372;56.832;60.658;2022-08-18T02:51:54;3.00;;;1.67;;
42726;SDS011;28372;56.832;60.658;2022-08-18T02:54:22;7.03;;;1.65;;
42726;SDS011;28372;56.832;60.658;2022-08-18T02:56:51;4.38;;;1.40;;
42726;SDS011;28372;56.832;60.658;2022-08-18T02:59:20;2.70;;;1.30;;
42726;SDS011;28372;56.832;60.658;2022-08-18T03:01:51;3.83;;;1.58;;
42726;SDS011;28372;56.832;60.658;2022-08-18T03:04:21;3.90;;;1.50;;
42726;SDS011;28372;56.832;60.658;2022-08-18T03:06:55;4.40;;;2.00;;
42726;SDS011;28372;56.832;60.658;2022-08-18T03:09:26;4.95;;;1.55;;
42726;SDS011;28372;56.832;60.658;2022-08-18T03:11:55;3.47;;;1.60;;
42726;SDS011;28372;56.832;60.658;2022-08-18T03:14:24;5.93;;;1.48;;
42726;SDS011;28372;56.832;60.658;2022-08-18T03:16:52;2.85;;;1.40;;
42726;SDS011;28372;56.832;60.658;2022-08-18T03:19:22;2.65;;;1.35;;
42726;SDS011;28372;56.832;60.658;2022-08-18T03:21:51;2.75;;;1.42;;
42726;SDS011;28372;56.832;60.658;2022-08-18T03:24:19;3.35;;;1.30;;
42726;SDS011;28372;56.832;60.658;2022-08-18T03:26:49;3.45;;;1.30;;
42726;SDS011;28372;56.832;60.658;2022-08-18T03:29:19;3.20;;;1.23;;
42726;SDS011;28372;56.832;60.658;2022-08-18T03:31:47;3.92;;;1.33;;
42726;SDS011;28372;56.832;60.658;2022-08-18T03:34:15;3.10;;;1.20;;
42726;SDS011;28372;56.832;60.658;2022-08-18T03:36:46;3.25;;;1.35;;
42726;SDS011;28372;56.832;60.658;2022-08-18T03:39:16;3.53;;;1.40;;
42726;SDS011;28372;56.832;60.658;2022-08-18T03:41:45;4.38;;;1.30;;
42726;SDS011;28372;56.832;60.658;2022-08-18T03:44:28;2.72;;;1.58;;
42726;SDS011;28372;56.832;60.658;2022-08-18T03:46:57;2.70;;;1.20;;
42726;SDS011;28372;56.832;60.658;2022-08-18T03:49:26;3.30;;;1.33;;
42726;SDS011;28372;56.832;60.658;2022-08-18T03:51:53;3.50;;;1.30;;
42726;SDS011;28372;56.832;60.658;2022-08-18T03:54:21;3.00;;;1.30;;
42726;SDS011;28372;56.832;60.658;2022-08-18T03:56:49;3.20;;;1.20;;
42726;SDS011;28372;56.832;60.658;2022-08-18T03:59:20;3.25;;;1.20;;
42726;SDS011;28372;56.832;60.658;2022-08-18T04:01:51;3.63;;;1.40;;
42726;SDS011;28372;56.832;60.658;2022-08-18T04:04:22;4.63;;;1.35;;
42726;SDS011;28372;56.832;60.658;2022-08-18T04:06:52;3.40;;;1.20;;
42726;SDS011;28372;56.832;60.658;2022-08-18T04:09:23;2.03;;;1.08;;
42726;SDS011;28372;56.832;60.658;2022-08-18T04:11:53;3.08;;;1.20;;
42726;SDS011;28372;56.832;60.658;2022-08-18T04:14:23;3.63;;;1.30;;
42726;SDS011;28372;56.832;60.658;2022-08-18T04:19:23;3.08;;;1.10;;
42726;SDS011;28372;56.832;60.658;2022-08-18T04:21:54;2.15;;;1.15;;
42726;SDS011;28372;56.832;60.658;2022-08-18T04:24:24;3.88;;;1.00;;
42726;SDS011;28372;56.832;60.658;2022-08-18T04:26:55;2.60;;;1.13;;
42726;SDS011;28372;56.832;60.658;2022-08-18T04:29:24;2.90;;;1.00;;
42726;SDS011;28372;56.832;60.658;2022-08-18T04:31:52;2.67;;;0.90;;
42726;SDS011;28372;56.832;60.658;2022-08-18T04:34:20;1.95;;;0.80;;
42726;SDS011;28372;56.832;60.658;2022-08-18T04:36:49;3.22;;;0.90;;
42726;SDS011;28372;56.832;60.658;2022-08-18T04:39:20;2.83;;;0.77;;
42726;SDS011;28372;56.832;60.658;2022-08-18T04:41:49;3.33;;;0.80;;
42726;SDS011;28372;56.832;60.658;2022-08-18T04:44:16;2.67;;;0.70;;
42726;SDS011;28372;56.832;60.658;2022-08-18T04:46:46;1.95;;;0.68;;
42726;SDS011;28372;56.832;60.658;2022-08-18T04:49:16;1.85;;;0.60;;
42726;SDS011;28372;56.832;60.658;2022-08-18T04:51:46;2.17;;;0.82;;
42726;SDS011;28372;56.832;60.658;2022-08-18T04:54:55;2.08;;;0.80;;
42726;SDS011;28372;56.832;60.658;2022-08-18T04:57:22;2.65;;;1.00;;
42726;SDS011;28372;56.832;60.658;2022-08-18T04:59:52;3.78;;;0.93;;
42726;SDS011;28372;56.832;60.658;2022-08-18T05:02:20;3.92;;;0.80;;
42726;SDS011;28372;56.832;60.658;2022-08-18T05:04:47;2.75;;;0.85;;
42726;SDS011;28372;56.832;60.658;2022-08-18T05:07:16;2.35;;;0.82;;
42726;SDS011;28372;56.832;60.658;2022-08-18T05:09:45;1.33;;;0.60;;
42726;SDS011;28372;56.832;60.658;2022-08-18T05:12:13;1.60;;;0.70;;
42726;SDS011;28372;56.832;60.658;2022-08-18T05:14:43;3.25;;;0.73;;
42726;SDS011;28372;56.832;60.658;2022-08-18T05:17:11;2.20;;;0.70;;
42726;SDS011;28372;56.832;60.658;2022-08-18T05:19:40;1.92;;;0.70;;
42726;SDS011;28372;56.832;60.658;2022-08-18T05:22:10;2.83;;;0.70;;
42726;SDS011;28372;56.832;60.658;2022-08-18T05:24:44;1.88;;;0.70;;
42726;SDS011;28372;56.832;60.658;2022-08-18T05:27:12;1.60;;;0.70;;
42726;SDS011;28372;56.832;60.658;2022-08-18T05:29:40;1.85;;;0.88;;
42726;SDS011;28372;56.832;60.658;2022-08-18T05:32:12;2.15;;;0.80;;
42726;SDS011;28372;56.832;60.658;2022-08-18T05:35:03;2.08;;;0.75;;
42726;SDS011;28372;56.832;60.658;2022-08-18T05:37:54;2.63;;;0.95;;
42726;SDS011;28372;56.832;60.658;2022-08-18T05:40:31;2.50;;;1.50;;
42726;SDS011;28372;56.832;60.658;2022-08-18T05:43:00;3.50;;;1.48;;
42726;SDS011;28372;56.832;60.658;2022-08-18T05:45:30;2.05;;;0.98;;
42726;SDS011;28372;56.832;60.658;2022-08-18T05:48:00;2.92;;;0.93;;
42726;SDS011;28372;56.832;60.658;2022-08-18T05:50:28;3.50;;;0.85;;
42726;SDS011;28372;56.832;60.658;2022-08-18T05:53:05;1.45;;;0.70;;
42726;SDS011;28372;56.832;60.658;2022-08-18T05:58:38;3.67;;;0.77;;
42726;SDS011;28372;56.832;60.658;2022-08-18T06:01:12;2.83;;;0.70;;
42726;SDS011;28372;56.832;60.658;2022-08-18T06:06:17;1.92;;;0.57;;
42726;SDS011;28372;56.832;60.658;2022-08-18T06:11:43;2.60;;;1.15;;
42726;SDS011;28372;56.832;60.658;2022-08-18T06:14:11;2.45;;;0.75;;
42726;SDS011;28372;56.832;60.658;2022-08-18T06:22:01;2.00;;;0.85;;
42726;SDS011;28372;56.832;60.658;2022-08-18T06:24:52;2.30;;;0.60;;
42726;SDS011;28372;56.832;60.658;2022-08-18T06:27:51;1.58;;;0.70;;
42726;SDS011;28372;56.832;60.658;2022-08-18T06:30:47;2.30;;;0.80;;
42726;SDS011;28372;56.832;60.658;2022-08-18T06:36:07;1.33;;;0.70;;
42726;SDS011;28372;56.832;60.658;2022-08-18T06:41:38;1.75;;;0.57;;
42726;SDS011;28372;56.832;60.658;2022-08-18T06:44:12;2.38;;;0.70;;
42726;SDS011;28372;56.832;60.658;2022-08-18T06:52:35;2.63;;;0.70;;
42726;SDS011;28372;56.832;60.658;2022-08-18T06:55:07;1.40;;;0.70;;
42726;SDS011;28372;56.832;60.658;2022-08-18T06:57:55;1.35;;;0.70;;
42726;SDS011;28372;56.832;60.658;2022-08-18T07:00:25;3.17;;;0.70;;
42726;SDS011;28372;56.832;60.658;2022-08-18T07:03:17;1.90;;;0.70;;
42726;SDS011;28372;56.832;60.658;2022-08-18T07:06:04;2.05;;;0.70;;
42726;SDS011;28372;56.832;60.658;2022-08-18T07:13:44;3.50;;;0.88;;
42726;SDS011;28372;56.832;60.658;2022-08-18T07:16:34;1.70;;;0.73;;
42726;SDS011;28372;56.832;60.658;2022-08-18T07:19:21;1.58;;;0.90;;
42726;SDS011;28372;56.832;60.658;2022-08-18T07:22:13;1.67;;;0.80;;
42726;SDS011;28372;56.832;60.658;2022-08-18T07:24:51;2.03;;;0.65;;
42726;SDS011;28372;56.832;60.658;2022-08-18T07:27:22;2.25;;;0.70;;
42726;SDS011;28372;56.832;60.658;2022-08-18T07:30:12;2.88;;;0.50;;
42726;SDS011;28372;56.832;60.658;2022-08-18T07:32:57;1.52;;;0.63;;
42726;SDS011;28372;56.832;60.658;2022-08-18T07:38:25;1.60;;;0.50;;
42726;SDS011;28372;56.832;60.658;2022-08-18T07:49:22;1.30;;;0.50;;
42726;SDS011;28372;56.832;60.658;2022-08-18T08:00:21;3.15;;;0.70;;
42726;SDS011;28372;56.832;60.658;2022-08-18T08:05:55;2.00;;;0.73;;
42726;SDS011;28372;56.832;60.658;2022-08-18T08:08:32;1.73;;;0.70;;
42726;SDS011;28372;56.832;60.658;2022-08-18T08:11:14;2.67;;;0.60;;
42726;SDS011;28372;56.832;60.658;2022-08-18T08:16:25;2.58;;;0.80;;
42726;SDS011;28372;56.832;60.658;2022-08-18T08:21:41;1.38;;;0.60;;
42726;SDS011;28372;56.832;60.658;2022-08-18T08:24:29;1.20;;;0.60;;
42726;SDS011;28372;56.832;60.658;2022-08-18T08:29:54;2.67;;;0.73;;
42726;SDS011;28372;56.832;60.658;2022-08-18T08:32:33;1.88;;;0.70;;
42726;SDS011;28372;56.832;60.658;2022-08-18T08:35:07;1.63;;;0.70;;
42726;SDS011;28372;56.832;60.658;2022-08-18T08:38:05;4.40;;;0.98;;
42726;SDS011;28372;56.832;60.658;2022-08-18T08:41:04;3.10;;;0.60;;
42726;SDS011;28372;56.832;60.658;2022-08-18T08:43:43;2.13;;;0.65;;
42726;SDS011;28372;56.832;60.658;2022-08-18T08:46:19;1.77;;;0.70;;
42726;SDS011;28372;56.832;60.658;2022-08-18T08:49:18;2.13;;;0.70;;
42726;SDS011;28372;56.832;60.658;2022-08-18T08:52:30;2.58;;;0.70;;
42726;SDS011;28372;56.832;60.658;2022-08-18T08:55:05;2.67;;;0.73;;
42726;SDS011;28372;56.832;60.658;2022-08-18T08:57:46;3.55;;;0.80;;
42726;SDS011;28372;56.832;60.658;2022-08-18T09:00:18;2.75;;;1.00;;
42726;SDS011;28372;56.832;60.658;2022-08-18T09:14:16;1.88;;;0.85;;
42726;SDS011;28372;56.832;60.658;2022-08-18T09:17:12;1.98;;;0.80;;
42726;SDS011;28372;56.832;60.658;2022-08-18T09:28:15;1.63;;;0.77;;
42726;SDS011;28372;56.832;60.658;2022-08-18T09:42:42;2.08;;;0.90;;
42726;SDS011;28372;56.832;60.658;2022-08-18T09:45:51;2.65;;;0.80;;
42726;SDS011;28372;56.832;60.658;2022-08-18T09:48:27;1.85;;;0.60;;
42726;SDS011;28372;56.832;60.658;2022-08-18T10:02:08;3.17;;;1.00;;
42726;SDS011;28372;56.832;60.658;2022-08-18T10:04:49;2.08;;;0.90;;
42726;SDS011;28372;56.832;60.658;2022-08-18T10:07:50;2.30;;;0.70;;
42726;SDS011;28372;56.832;60.658;2022-08-18T10:19:33;3.97;;;1.08;;
42726;SDS011;28372;56.832;60.658;2022-08-18T10:22:38;2.78;;;0.82;;
42726;SDS011;28372;56.832;60.658;2022-08-18T10:25:13;1.63;;;0.70;;
42726;SDS011;28372;56.832;60.658;2022-08-18T10:27:55;2.70;;;1.10;;
42726;SDS011;28372;56.832;60.658;2022-08-18T10:42:38;2.28;;;0.80;;
42726;SDS011;28372;56.832;60.658;2022-08-18T10:45:51;2.88;;;1.10;;
42726;SDS011;28372;56.832;60.658;2022-08-18T10:48:39;2.80;;;0.90;;
42726;SDS011;28372;56.832;60.658;2022-08-18T10:51:12;2.80;;;0.90;;
42726;SDS011;28372;56.832;60.658;2022-08-18T11:04:44;4.03;;;1.08;;
42726;SDS011;28372;56.832;60.658;2022-08-18T11:07:34;3.03;;;1.05;;
42726;SDS011;28372;56.832;60.658;2022-08-18T11:10:22;2.08;;;1.00;;
42726;SDS011;28372;56.832;60.658;2022-08-18T11:13:31;1.98;;;1.00;;
42726;SDS011;28372;56.832;60.658;2022-08-18T11:16:26;2.88;;;1.02;;
42726;SDS011;28372;56.832;60.658;2022-08-18T11:19:16;2.38;;;1.00;;
42726;SDS011;28372;56.832;60.658;2022-08-18T11:21:47;2.53;;;1.10;;
42726;SDS011;28372;56.832;60.658;2022-08-18T11:24:19;3.38;;;1.13;;
42726;SDS011;28372;56.832;60.658;2022-08-18T11:29:35;3.13;;;1.35;;
42726;SDS011;28372;56.832;60.658;2022-08-18T11:32:07;3.28;;;1.40;;
42726;SDS011;28372;56.832;60.658;2022-08-18T11:34:44;4.83;;;1.03;;
42726;SDS011;28372;56.832;60.658;2022-08-18T11:37:21;3.00;;;1.20;;
42726;SDS011;28372;56.832;60.658;2022-08-18T11:43:18;5.07;;;1.10;;
42726;SDS011;28372;56.832;60.658;2022-08-18T11:46:21;2.90;;;1.00;;
42726;SDS011;28372;56.832;60.658;2022-08-18T11:48:58;3.20;;;1.20;;
42726;SDS011;28372;56.832;60.658;2022-08-18T11:51:28;2.05;;;0.98;;
42726;SDS011;28372;56.832;60.658;2022-08-18T11:56:34;4.00;;;1.10;;
42726;SDS011;28372;56.832;60.658;2022-08-18T11:59:05;1.75;;;0.90;;
42726;SDS011;28372;56.832;60.658;2022-08-18T12:02:14;2.55;;;0.90;;
42726;SDS011;28372;56.832;60.658;2022-08-18T12:04:47;3.67;;;1.33;;
42726;SDS011;28372;56.832;60.658;2022-08-18T12:07:28;3.63;;;1.48;;
42726;SDS011;28372;56.832;60.658;2022-08-18T12:12:54;1.90;;;0.90;;
42726;SDS011;28372;56.832;60.658;2022-08-18T12:15:45;3.03;;;1.00;;
42726;SDS011;28372;56.832;60.658;2022-08-18T12:18:14;2.85;;;1.10;;
42726;SDS011;28372;56.832;60.658;2022-08-18T12:20:55;2.20;;;1.10;;
42726;SDS011;28372;56.832;60.658;2022-08-18T12:23:24;4.45;;;1.00;;
42726;SDS011;28372;56.832;60.658;2022-08-18T12:25:52;3.40;;;1.15;;
42726;SDS011;28372;56.832;60.658;2022-08-18T12:28:20;2.53;;;1.08;;
42726;SDS011;28372;56.832;60.658;2022-08-18T12:33:23;4.07;;;1.17;;
42726;SDS011;28372;56.832;60.658;2022-08-18T12:36:10;5.38;;;1.33;;
42726;SDS011;28372;56.832;60.658;2022-08-18T12:38:39;3.28;;;1.38;;
42726;SDS011;28372;56.832;60.658;2022-08-18T12:41:18;4.68;;;1.30;;
42726;SDS011;28372;56.832;60.658;2022-08-18T12:43:49;4.35;;;1.50;;
42726;SDS011;28372;56.832;60.658;2022-08-18T12:46:25;3.95;;;1.30;;
42726;SDS011;28372;56.832;60.658;2022-08-18T12:48:53;2.58;;;1.10;;
42726;SDS011;28372;56.832;60.658;2022-08-18T12:51:21;2.33;;;1.08;;
42726;SDS011;28372;56.832;60.658;2022-08-18T12:53:56;6.18;;;1.15;;
42726;SDS011;28372;56.832;60.658;2022-08-18T12:56:26;3.53;;;1.00;;
42726;SDS011;28372;56.832;60.658;2022-08-18T12:58:57;2.40;;;0.80;;
42726;SDS011;28372;56.832;60.658;2022-08-18T13:01:30;2.30;;;0.90;;
42726;SDS011;28372;56.832;60.658;2022-08-18T13:03:59;3.63;;;1.20;;
42726;SDS011;28372;56.832;60.658;2022-08-18T13:06:41;3.30;;;1.30;;
42726;SDS011;28372;56.832;60.658;2022-08-18T13:09:26;4.00;;;1.55;;
42726;SDS011;28372;56.832;60.658;2022-08-18T13:12:16;3.13;;;1.70;;
42726;SDS011;28372;56.832;60.658;2022-08-18T13:14:45;3.35;;;1.70;;
42726;SDS011;28372;56.832;60.658;2022-08-18T13:17:14;2.22;;;1.20;;
42726;SDS011;28372;56.832;60.658;2022-08-18T13:20:00;4.20;;;2.15;;
42726;SDS011;28372;56.832;60.658;2022-08-18T13:22:33;4.13;;;1.52;;
42726;SDS011;28372;56.832;60.658;2022-08-18T13:25:03;2.90;;;1.40;;
42726;SDS011;28372;56.832;60.658;2022-08-18T13:27:33;2.72;;;1.17;;
42726;SDS011;28372;56.832;60.658;2022-08-18T13:30:04;2.03;;;1.10;;
42726;SDS011;28372;56.832;60.658;2022-08-18T13:32:55;2.28;;;1.10;;
42726;SDS011;28372;56.832;60.658;2022-08-18T13:35:25;5.35;;;1.35;;
42726;SDS011;28372;56.832;60.658;2022-08-18T13:38:01;2.80;;;1.30;;
42726;SDS011;28372;56.832;60.658;2022-08-18T13:40:43;2.47;;;1.33;;
42726;SDS011;28372;56.832;60.658;2022-08-18T13:43:13;3.40;;;1.40;;
42726;SDS011;28372;56.832;60.658;2022-08-18T13:45:43;2.50;;;1.30;;
42726;SDS011;28372;56.832;60.658;2022-08-18T13:48:21;5.75;;;1.30;;
42726;SDS011;28372;56.832;60.658;2022-08-18T13:50:52;3.20;;;1.23;;
42726;SDS011;28372;56.832;60.658;2022-08-18T13:53:21;4.70;;;1.40;;
42726;SDS011;28372;56.832;60.658;2022-08-18T13:55:53;2.90;;;1.25;;
42726;SDS011;28372;56.832;60.658;2022-08-18T13:58:24;5.25;;;1.35;;
42726;SDS011;28372;56.832;60.658;2022-08-18T14:01:00;5.13;;;1.30;;
42726;SDS011;28372;56.832;60.658;2022-08-18T14:03:49;6.53;;;1.27;;
42726;SDS011;28372;56.832;60.658;2022-08-18T14:06:17;4.45;;;1.45;;
42726;SDS011;28372;56.832;60.658;2022-08-18T14:08:50;3.60;;;1.38;;
42726;SDS011;28372;56.832;60.658;2022-08-18T14:11:20;5.60;;;1.55;;
42726;SDS011;28372;56.832;60.658;2022-08-18T14:13:53;5.32;;;1.30;;
42726;SDS011;28372;56.832;60.658;2022-08-18T14:16:22;4.85;;;1.20;;
42726;SDS011;28372;56.832;60.658;2022-08-18T14:18:53;4.68;;;1.40;;
42726;SDS011;28372;56.832;60.658;2022-08-18T14:21:54;5.65;;;1.35;;
42726;SDS011;28372;56.832;60.658;2022-08-18T14:24:40;5.40;;;1.60;;
42726;SDS011;28372;56.832;60.658;2022-08-18T14:27:33;5.95;;;1.23;;
42726;SDS011;28372;56.832;60.658;2022-08-18T14:30:05;6.95;;;1.30;;
42726;SDS011;28372;56.832;60.658;2022-08-18T14:32:36;3.05;;;1.40;;
42726;SDS011;28372;56.832;60.658;2022-08-18T14:35:15;4.35;;;1.45;;
42726;SDS011;28372;56.832;60.658;2022-08-18T14:38:04;6.05;;;2.08;;
42726;SDS011;28372;56.832;60.658;2022-08-18T14:40:35;6.28;;;1.42;;
42726;SDS011;28372;56.832;60.658;2022-08-18T14:43:09;3.13;;;1.50;;
42726;SDS011;28372;56.832;60.658;2022-08-18T14:45:41;4.10;;;1.25;;
42726;SDS011;28372;56.832;60.658;2022-08-18T14:48:17;2.92;;;1.38;;
42726;SDS011;28372;56.832;60.658;2022-08-18T14:50:50;6.40;;;1.55;;
42726;SDS011;28372;56.832;60.658;2022-08-18T14:53:22;5.72;;;1.25;;
42726;SDS011;28372;56.832;60.658;2022-08-18T14:55:52;3.80;;;1.40;;
42726;SDS011;28372;56.832;60.658;2022-08-18T14:58:23;4.30;;;1.52;;
42726;SDS011;28372;56.832;60.658;2022-08-18T15:00:55;4.03;;;1.30;;
42726;SDS011;28372;56.832;60.658;2022-08-18T15:03:34;11.30;;;1.55;;
42726;SDS011;28372;56.832;60.658;2022-08-18T15:06:03;7.15;;;1.77;;
42726;SDS011;28372;56.832;60.658;2022-08-18T15:08:33;6.03;;;1.50;;
42726;SDS011;28372;56.832;60.658;2022-08-18T15:11:03;2.75;;;1.48;;
42726;SDS011;28372;56.832;60.658;2022-08-18T15:13:38;3.72;;;1.50;;
42726;SDS011;28372;56.832;60.658;2022-08-18T15:16:08;3.55;;;2.03;;
42726;SDS011;28372;56.832;60.658;2022-08-18T15:18:40;3.70;;;1.60;;
42726;SDS011;28372;56.832;60.658;2022-08-18T15:21:09;3.05;;;1.58;;
42726;SDS011;28372;56.832;60.658;2022-08-18T15:24:05;3.05;;;1.40;;
42726;SDS011;28372;56.832;60.658;2022-08-18T15:26:53;2.50;;;1.30;;
42726;SDS011;28372;56.832;60.658;2022-08-18T15:29:31;4.75;;;1.40;;
42726;SDS011;28372;56.832;60.658;2022-08-18T15:32:01;2.88;;;1.30;;
42726;SDS011;28372;56.832;60.658;2022-08-18T15:34:36;9.05;;;1.52;;
42726;SDS011;28372;56.832;60.658;2022-08-18T15:37:17;4.10;;;1.30;;
42726;SDS011;28372;56.832;60.658;2022-08-18T15:39:57;4.40;;;1.75;;
42726;SDS011;28372;56.832;60.658;2022-08-18T15:42:57;3.05;;;1.20;;
42726;SDS011;28372;56.832;60.658;2022-08-18T15:45:30;5.90;;;1.60;;
42726;SDS011;28372;56.832;60.658;2022-08-18T15:48:17;4.13;;;1.40;;
42726;SDS011;28372;56.832;60.658;2022-08-18T15:50:47;4.22;;;1.45;;
42726;SDS011;28372;56.832;60.658;2022-08-18T15:53:18;2.95;;;1.50;;
42726;SDS011;28372;56.832;60.658;2022-08-18T15:55:48;3.00;;;1.30;;
42726;SDS011;28372;56.832;60.658;2022-08-18T15:58:16;2.28;;;1.38;;
42726;SDS011;28372;56.832;60.658;2022-08-18T16:00:52;4.40;;;1.48;;
42726;SDS011;28372;56.832;60.658;2022-08-18T16:03:20;3.60;;;1.60;;
42726;SDS011;28372;56.832;60.658;2022-08-18T16:05:49;3.53;;;1.70;;
42726;SDS011;28372;56.832;60.658;2022-08-18T16:08:19;3.20;;;1.80;;
42726;SDS011;28372;56.832;60.658;2022-08-18T16:10:49;4.28;;;1.58;;
42726;SDS011;28372;56.832;60.658;2022-08-18T16:13:18;4.07;;;1.92;;
42726;SDS011;28372;56.832;60.658;2022-08-18T16:15:47;7.40;;;2.55;;
42726;SDS011;28372;56.832;60.658;2022-08-18T16:18:16;5.35;;;3.60;;
42726;SDS011;28372;56.832;60.658;2022-08-18T16:20:46;5.28;;;2.80;;
42726;SDS011;28372;56.832;60.658;2022-08-18T16:23:18;5.47;;;2.30;;
42726;SDS011;28372;56.832;60.658;2022-08-18T16:25:46;3.63;;;2.05;;
42726;SDS011;28372;56.832;60.658;2022-08-18T16:28:14;5.28;;;2.10;;
42726;SDS011;28372;56.832;60.658;2022-08-18T16:30:42;6.78;;;2.22;;
42726;SDS011;28372;56.832;60.658;2022-08-18T16:33:21;4.28;;;2.00;;
42726;SDS011;28372;56.832;60.658;2022-08-18T16:35:51;4.82;;;1.80;;
42726;SDS011;28372;56.832;60.658;2022-08-18T16:38:19;3.55;;;2.15;;
42726;SDS011;28372;56.832;60.658;2022-08-18T16:40:47;3.83;;;1.90;;
42726;SDS011;28372;56.832;60.658;2022-08-18T16:43:15;3.55;;;2.00;;
42726;SDS011;28372;56.832;60.658;2022-08-18T16:45:43;4.57;;;2.13;;
42726;SDS011;28372;56.832;60.658;2022-08-18T16:48:10;7.28;;;2.63;;
42726;SDS011;28372;56.832;60.658;2022-08-18T16:50:43;6.05;;;2.60;;
42726;SDS011;28372;56.832;60.658;2022-08-18T16:53:11;7.22;;;2.90;;
42726;SDS011;28372;56.832;60.658;2022-08-18T16:55:40;5.82;;;3.40;;
42726;SDS011;28372;56.832;60.658;2022-08-18T16:58:09;4.90;;;3.20;;
42726;SDS011;28372;56.832;60.658;2022-08-18T17:00:56;5.70;;;2.00;;
42726;SDS011;28372;56.832;60.658;2022-08-18T17:03:45;4.22;;;2.60;;
42726;SDS011;28372;56.832;60.658;2022-08-18T17:06:40;4.30;;;2.72;;
42726;SDS011;28372;56.832;60.658;2022-08-18T17:09:14;5.80;;;2.50;;
42726;SDS011;28372;56.832;60.658;2022-08-18T17:11:42;5.82;;;2.75;;
42726;SDS011;28372;56.832;60.658;2022-08-18T17:14:21;5.78;;;2.60;;
42726;SDS011;28372;56.832;60.658;2022-08-18T17:16:51;6.95;;;3.20;;
42726;SDS011;28372;56.832;60.658;2022-08-18T17:19:23;5.60;;;2.70;;
42726;SDS011;28372;56.832;60.658;2022-08-18T17:21:53;5.47;;;2.75;;
42726;SDS011;28372;56.832;60.658;2022-08-18T17:24:21;5.00;;;2.42;;
42726;SDS011;28372;56.832;60.658;2022-08-18T17:32:47;8.45;;;3.17;;
42726;SDS011;28372;56.832;60.658;2022-08-18T17:35:26;7.35;;;3.83;;
42726;SDS011;28372;56.832;60.658;2022-08-18T17:38:00;6.20;;;3.22;;
42726;SDS011;28372;56.832;60.658;2022-08-18T17:40:43;8.40;;;3.83;;
42726;SDS011;28372;56.832;60.658;2022-08-18T17:43:15;5.50;;;3.08;;
42726;SDS011;28372;56.832;60.658;2022-08-18T17:45:51;8.13;;;4.00;;
42726;SDS011;28372;56.832;60.658;2022-08-18T17:48:29;5.05;;;2.53;;
42726;SDS011;28372;56.832;60.658;2022-08-18T17:51:01;6.95;;;3.40;;
42726;SDS011;28372;56.832;60.658;2022-08-18T17:53:53;7.80;;;2.83;;
42726;SDS011;28372;56.832;60.658;2022-08-18T17:56:24;4.50;;;2.20;;
42726;SDS011;28372;56.832;60.658;2022-08-18T17:59:11;5.72;;;2.58;;
42726;SDS011;28372;56.832;60.658;2022-08-18T18:02:07;3.65;;;1.83;;
42726;SDS011;28372;56.832;60.658;2022-08-18T18:04:57;4.78;;;2.00;;